| time (UTC) | temp C | wind direction | speed KPH | gust KPH | rain 1hr cm | rain 24hr cm | rain mn cm | humidity % | barometer mb |
| 20260505064549 | 7 | 0.0 | 0.0 | 0.00 | 0.33 | 0.00 | 89 | 1012.5 | |
| 20260505063042 | 7 | 0.0 | 0.0 | 0.00 | 0.33 | 0.00 | 89 | 1012.4 | |
| 20260505061541 | 7 | 0.0 | 0.0 | 0.00 | 0.33 | 0.00 | 89 | 1012.3 | |
| 20260505060046 | 7 | 0.0 | 0.0 | 0.00 | 0.33 | 0.00 | 88 | 1012.5 | |
| 20260505054550 | 7 | 0.0 | 0.0 | 0.00 | 0.33 | 0.33 | 87 | 1012.8 | |
| 20260505053048 | 7 | 0.0 | 0.0 | 0.03 | 0.33 | 0.33 | 86 | 1012.5 | |
| 20260505051542 | 8 | 0.0 | 0.0 | 0.05 | 0.33 | 0.33 | 85 | 1012.5 | |
| 20260505041551 | 8 | 0.0 | 0.0 | 0.23 | 0.28 | 0.28 | 83 | 1012.9 | |
| 20260505040058 | 8 | 0.0 | 0.0 | 0.25 | 0.25 | 0.25 | 82 | 1013.3 | |
| 20260505034603 | 8 | 0.0 | 0.0 | 0.20 | 0.20 | 0.20 | 80 | 1013.1 | |
| 20260505033043 | 10 | 0.0 | 0.0 | 0.13 | 0.13 | 0.13 | 76 | 1013.0 | |
| 20260505031544 | 10 | 0.0 | 0.0 | 0.05 | 0.05 | 0.05 | 71 | 1012.7 | |
| 20260505030047 | 11 | 0.0 | 0.0 | 0.00 | 0.00 | 0.00 | 62 | 1012.3 | |
| 20260505024545 | 11 | 0.0 | 0.0 | 0.00 | 0.00 | 0.00 | 61 | 1011.8 | |
| 20260505023046 | 11 | 0.0 | 0.0 | 0.00 | 0.00 | 0.00 | 61 | 1011.6 | |
| 20260505021541 | 11 | 0.0 | 0.0 | 0.00 | 0.00 | 0.00 | 62 | 1011.4 | |
| 20260505020053 | 11 | 0.0 | 0.0 | 0.00 | 0.00 | 0.00 | 63 | 1011.4 | |
| 20260505014542 | 12 | 0.0 | 0.0 | 0.00 | 0.00 | 0.00 | 63 | 1011.4 | |
| 20260505013042 | 12 | 0.0 | 0.0 | 0.00 | 0.00 | 0.00 | 62 | 1011.0 | |
| 20260505011546 | 12 | 0.0 | 0.0 | 0.00 | 0.00 | 0.00 | 60 | 1011.3 | |
| 20260505010104 | 12 | 0.0 | 0.0 | 0.00 | 0.00 | 0.00 | 60 | 1010.9 | |
| 20260505004558 | 12 | 0.0 | 0.0 | 0.00 | 0.00 | 0.00 | 62 | 1011.2 | |
| 20260505003045 | 12 | 0.0 | 0.0 | 0.00 | 0.00 | 0.00 | 56 | 1011.3 | |
| 20260505001543 | 13 | 0.0 | 0.0 | 0.00 | 0.00 | 0.00 | 52 | 1011.1 | |
| 20260505000041 | 14 | 0.0 | 0.0 | 0.00 | 0.00 | 0.00 | 44 | 1010.6 | |
| 20260504234537 | 14 | 0.0 | 0.0 | 0.00 | 0.00 | 0.00 | 43 | 1010.1 | |
| 20260504233046 | 15 | 0.0 | 0.0 | 0.00 | 0.00 | 0.00 | 42 | 1009.7 | |
| 20260504231558 | 15 | 0.0 | 0.0 | 0.00 | 0.00 | 0.00 | 38 | 1009.4 | |
| 20260504230042 | 15 | 0.0 | 0.0 | 0.00 | 0.00 | 0.00 | 38 | 1009.3 | |
| 20260504224543 | 16 | 0.0 | 0.0 | 0.00 | 0.00 | 0.00 | 37 | 1009.1 | |
| 20260504223041 | 17 | 0.0 | 0.0 | 0.00 | 0.00 | 0.00 | 34 | 1009.3 | |
| 20260504221612 | 18 | 0.0 | 0.0 | 0.00 | 0.00 | 0.00 | 30 | 1009.3 | |
| 20260504220043 | 20 | 0.0 | 0.0 | 0.00 | 0.00 | 0.00 | 23 | 1008.7 | |
| 20260504214541 | 20 | 0.0 | 0.0 | 0.00 | 0.00 | 0.00 | 26 | 1008.6 | |
| 20260504213044 | 20 | 0.0 | 0.0 | 0.00 | 0.00 | 0.00 | 24 | 1008.8 | |
| 20260504211542 | 20 | 0.0 | 0.0 | 0.00 | 0.00 | 0.00 | 26 | 1009.0 | |
| 20260504210047 | 20 | 0.0 | 0.0 | 0.00 | 0.00 | 0.00 | 28 | 1009.2 | |
| 20260504204542 | 20 | 0.0 | 0.0 | 0.00 | 0.00 | 0.00 | 29 | 1009.1 | |
| 20260504203045 | 20 | 0.0 | 0.0 | 0.00 | 0.00 | 0.00 | 29 | 1009.7 | |
| 20260504201544 | 18 | 0.0 | 0.0 | 0.00 | 0.00 | 0.00 | 30 | 1009.9 | |
| 20260504200041 | 18 | 0.0 | 0.0 | 0.00 | 0.00 | 0.00 | 30 | 1009.9 | |
| 20260504194549 | 18 | 0.0 | 0.0 | 0.00 | 0.00 | 0.00 | 30 | 1009.9 | |
| 20260504193046 | 19 | 0.0 | 0.0 | 0.00 | 0.00 | 0.00 | 31 | 1009.9 | |
| 20260504191608 | 19 | 0.0 | 0.0 | 0.00 | 0.00 | 0.00 | 32 | 1009.6 | |
| 20260504190039 | 17 | 0.0 | 0.0 | 0.00 | 0.00 | 0.00 | 34 | 1009.8 | |
| 20260504184554 | 16 | 0.0 | 0.0 | 0.00 | 0.00 | 0.00 | 38 | 1009.9 | |
| 20260504183041 | 17 | 0.0 | 0.0 | 0.00 | 0.00 | 0.00 | 33 | 1010.4 | |
| 20260504181542 | 18 | 0.0 | 0.0 | 0.00 | 0.00 | 0.00 | 24 | 1010.0 | |
| 20260504180047 | 20 | 0.0 | 0.0 | 0.00 | 0.00 | 0.00 | 24 | 1009.4 | |
| 20260504174536 | 20 | 0.0 | 0.0 | 0.00 | 0.00 | 0.00 | 21 | 1009.5 | |
| 20260504173044 | 20 | 0.0 | 0.0 | 0.00 | 0.00 | 0.00 | 21 | 1009.5 | |
| 20260504171546 | 20 | 0.0 | 0.0 | 0.00 | 0.00 | 0.00 | 21 | 1009.7 | |
| 20260504100323 | 7 | 0.0 | 0.0 | 0.00 | 0.00 | 0.00 | 43 | 1011.4 | |
| 20260504081544 | 10 | 0.0 | 0.0 | 0.00 | 0.00 | 0.00 | 35 | 1012.0 |